Time;durP1;ratioP1;P1;durP2;ratioP2;P2;SDS_P1;SDS_P2;PMS_P1;PMS_P2;Temp;Humidity;BMP_temperature;BMP_pressure;BME280_temperature;BME280_humidity;BME280_pressure;Samples;Min_cycle;Max_cycle;Signal;HPM_P1;HPM_P2
2023/10/28 00:01:36;;;;;;;0.00;0.00;;;18.60;45.00;;;;;;5071155;28;20248;-45
2023/10/28 00:04:07;;;;;;;0.00;0.00;;;18.70;45.00;;;;;;5070198;28;20194;-46
2023/10/28 00:06:39;;;;;;;0.10;0.10;;;18.70;44.90;;;;;;5056775;28;20203;-45
2023/10/28 00:09:10;;;;;;;0.00;0.00;;;18.70;44.80;;;;;;5055284;28;20226;-47
2023/10/28 00:11:41;;;;;;;0.10;0.10;;;18.80;44.80;;;;;;5053233;28;20269;-48
2023/10/28 00:14:14;;;;;;;0.10;0.10;;;18.80;44.70;;;;;;5053231;28;20217;-47
2023/10/28 00:16:45;;;;;;;0.10;0.10;;;18.80;44.70;;;;;;5068519;22;20318;-54
2023/10/28 00:19:16;;;;;;;0.10;0.10;;;18.90;44.80;;;;;;5033025;28;20235;-49
2023/10/28 00:21:46;;;;;;;0.00;0.00;;;18.90;44.80;;;;;;5032574;28;20196;-52
2023/10/28 00:24:17;;;;;;;0.10;0.10;;;18.90;44.80;;;;;;5032102;28;20192;-50
2023/10/28 00:26:47;;;;;;;0.00;0.00;;;18.90;44.80;;;;;;5039706;28;20593;-53
2023/10/28 00:29:20;;;;;;;0.10;0.10;;;19.00;44.90;;;;;;5049802;28;20200;-47
2023/10/28 00:31:51;;;;;;;0.10;0.10;;;19.10;45.00;;;;;;5027540;28;20235;-46
2023/10/28 00:34:21;;;;;;;0.10;0.10;;;19.10;45.00;;;;;;5032030;28;20192;-50
2023/10/28 00:36:52;;;;;;;0.10;0.10;;;19.10;45.00;;;;;;5032107;28;20196;-54
2023/10/28 00:39:22;;;;;;;0.10;0.10;;;19.10;45.00;;;;;;5026260;28;20196;-55
2023/10/28 00:41:53;;;;;;;0.10;0.10;;;19.10;44.90;;;;;;5014632;28;20193;-52
2023/10/28 00:44:25;;;;;;;0.10;0.10;;;19.20;45.00;;;;;;5022011;28;20206;-56
2023/10/28 00:46:56;;;;;;;0.03;0.03;;;19.20;44.90;;;;;;5026247;28;20682;-49
2023/10/28 00:49:29;;;;;;;0.10;0.10;;;19.20;44.70;;;;;;5022436;28;20651;-57
2023/10/28 00:52:00;;;;;;;0.10;0.10;;;19.30;44.70;;;;;;5026198;28;20769;-55
2023/10/28 00:54:31;;;;;;;0.03;0.03;;;19.30;45.20;;;;;;5029222;28;20207;-54
2023/10/28 00:57:02;;;;;;;0.10;0.10;;;19.30;44.60;;;;;;5027934;28;20196;-55
2023/10/28 00:59:35;;;;;;;0.00;0.00;;;19.40;44.70;;;;;;5027988;28;20207;-56
2023/10/28 01:02:06;;;;;;;0.10;0.10;;;19.40;44.70;;;;;;5028154;28;20200;-52
2023/10/28 01:04:36;;;;;;;0.10;0.10;;;19.50;44.80;;;;;;5023984;28;20196;-55
2023/10/28 01:07:07;;;;;;;0.10;0.10;;;19.50;44.80;;;;;;5027674;28;20224;-50
2023/10/28 01:09:48;;;;;;;0.10;0.10;;;19.60;44.80;;;;;;5027095;28;20663;-52
2023/10/28 01:12:18;;;;;;;0.10;0.10;;;19.60;44.90;;;;;;5029332;28;20227;-53
2023/10/28 01:14:52;;;;;;;0.10;0.10;;;19.60;45.00;;;;;;5026705;28;20204;-48
2023/10/28 01:17:25;;;;;;;0.10;0.10;;;19.70;45.00;;;;;;5055111;22;20292;-49
2023/10/28 01:19:56;;;;;;;0.20;0.20;;;19.70;45.10;;;;;;5019926;28;20200;-51
2023/10/28 01:22:29;;;;;;;0.10;0.10;;;19.70;45.10;;;;;;5014332;28;20193;-50
2023/10/28 01:24:59;;;;;;;0.10;0.10;;;19.70;44.90;;;;;;5015448;28;20683;-50
2023/10/28 01:27:30;;;;;;;0.10;0.10;;;19.80;44.80;;;;;;5012792;28;20217;-50
2023/10/28 01:30:01;;;;;;;0.00;0.00;;;19.80;44.70;;;;;;5015513;28;20201;-51
2023/10/28 01:32:31;;;;;;;0.10;0.10;;;19.80;44.60;;;;;;5025477;28;20696;-51
2023/10/28 01:35:02;;;;;;;0.08;0.08;;;19.90;44.50;;;;;;5015057;28;20197;-47
2023/10/28 01:37:35;;;;;;;0.00;0.00;;;19.90;44.40;;;;;;5012274;28;20213;-49
2023/10/28 01:40:09;;;;;;;0.10;0.10;;;20.00;44.40;;;;;;5016154;28;20220;-51
2023/10/28 01:42:40;;;;;;;0.00;0.00;;;20.00;44.30;;;;;;5015636;28;20199;-52
2023/10/28 01:45:11;;;;;;;0.00;0.00;;;20.00;44.30;;;;;;5013488;28;20200;-51
2023/10/28 01:47:43;;;;;;;0.10;0.10;;;20.10;44.40;;;;;;5026827;28;20370;-47
2023/10/28 01:50:14;;;;;;;0.03;0.03;;;20.10;44.30;;;;;;5020768;28;20227;-51
2023/10/28 01:52:46;;;;;;;0.10;0.10;;;20.10;44.20;;;;;;5017694;28;20204;-51
2023/10/28 01:55:17;;;;;;;0.10;0.10;;;20.20;44.10;;;;;;5014519;28;20231;-48
2023/10/28 01:57:48;;;;;;;0.08;0.08;;;20.20;44.00;;;;;;5010858;28;20224;-51
2023/10/28 02:00:19;;;;;;;0.00;0.00;;;20.20;44.00;;;;;;5011188;28;20201;-50
2023/10/28 02:02:50;;;;;;;0.10;0.10;;;20.20;43.90;;;;;;5015198;28;20201;-52
2023/10/28 02:05:21;;;;;;;0.00;0.00;;;20.30;43.90;;;;;;5009879;28;20201;-51
2023/10/28 02:07:53;;;;;;;0.00;0.00;;;20.30;44.00;;;;;;5010087;28;20692;-49
2023/10/28 02:10:24;;;;;;;0.10;0.10;;;20.30;44.00;;;;;;5014103;28;20323;-49
2023/10/28 02:12:55;;;;;;;0.10;0.10;;;20.30;44.10;;;;;;5009384;28;20200;-51
2023/10/28 02:18:06;;;;;;;0.10;0.10;;;20.40;43.90;;;;;;5047991;28;20223;-59
2023/10/28 02:20:41;;;;;;;0.10;0.10;;;20.40;43.70;;;;;;5050028;28;20661;-51
2023/10/28 02:23:14;;;;;;;0.00;0.00;;;20.40;43.60;;;;;;5049641;28;20244;-58
2023/10/28 02:25:45;;;;;;;0.10;0.10;;;20.50;43.60;;;;;;5049209;28;20283;-56
2023/10/28 02:28:15;;;;;;;0.10;0.10;;;20.50;43.50;;;;;;5049098;28;20222;-56
2023/10/28 02:30:46;;;;;;;0.00;0.00;;;20.50;43.20;;;;;;5049249;28;20219;-57
2023/10/28 02:33:17;;;;;;;0.10;0.10;;;20.60;43.10;;;;;;5048977;28;20249;-57
2023/10/28 02:35:47;;;;;;;0.10;0.10;;;20.60;43.10;;;;;;5052114;28;20199;-56
2023/10/28 02:38:20;;;;;;;0.10;0.10;;;20.60;43.00;;;;;;5048702;28;20230;-57
2023/10/28 02:40:50;;;;;;;0.10;0.10;;;20.60;43.00;;;;;;5049831;28;20572;-55
2023/10/28 02:43:21;;;;;;;0.10;0.10;;;20.70;43.00;;;;;;5048842;28;20191;-57
2023/10/28 02:45:52;;;;;;;0.10;0.10;;;20.70;43.60;;;;;;5052067;28;20195;-58
2023/10/28 02:48:22;;;;;;;0.10;0.10;;;20.70;43.00;;;;;;5049491;28;20208;-57
2023/10/28 02:50:53;;;;;;;0.00;0.00;;;20.70;43.00;;;;;;5051033;28;20591;-56
2023/10/28 02:53:25;;;;;;;0.10;0.10;;;20.70;42.90;;;;;;5046813;28;20196;-57
2023/10/28 02:55:56;;;;;;;0.10;0.10;;;20.80;42.90;;;;;;5031494;28;20204;-55
2023/10/28 02:58:26;;;;;;;0.10;0.10;;;20.80;42.90;;;;;;5043489;28;20227;-54
2023/10/28 03:00:57;;;;;;;0.10;0.10;;;20.80;42.80;;;;;;5051577;28;20196;-53
2023/10/28 03:03:28;;;;;;;0.00;0.00;;;20.90;42.80;;;;;;5052570;28;20647;-49
2023/10/28 03:05:58;;;;;;;0.10;0.10;;;20.90;42.70;;;;;;5054189;28;20668;-52
2023/10/28 03:08:31;;;;;;;0.10;0.10;;;21.00;42.90;;;;;;5052506;28;20235;-53
2023/10/28 03:11:02;;;;;;;0.10;0.10;;;21.00;42.70;;;;;;5053113;28;20714;-56
2023/10/28 03:13:33;;;;;;;0.10;0.10;;;21.00;42.50;;;;;;5052927;28;20239;-50
2023/10/28 03:16:03;;;;;;;0.10;0.10;;;21.00;42.30;;;;;;5053254;28;20203;-56
2023/10/28 03:18:34;;;;;;;0.10;0.10;;;21.10;42.40;;;;;;5052828;28;20219;-50
2023/10/28 03:21:05;;;;;;;0.10;0.10;;;21.10;42.60;;;;;;5052663;28;20199;-50
2023/10/28 03:23:37;;;;;;;0.10;0.10;;;21.10;42.60;;;;;;5053154;28;20202;-52
2023/10/28 03:26:10;;;;;;;0.05;0.05;;;21.10;42.50;;;;;;5052713;28;20192;-51
2023/10/28 03:28:40;;;;;;;0.10;0.10;;;21.20;42.50;;;;;;5052708;28;20219;-50
2023/10/28 03:31:11;;;;;;;0.00;0.00;;;21.20;42.40;;;;;;5052761;28;20722;-49
2023/10/28 03:33:42;;;;;;;0.00;0.00;;;21.30;42.40;;;;;;5051985;28;20207;-51
2023/10/28 03:36:13;;;;;;;0.10;0.10;;;21.30;42.50;;;;;;5053267;28;20203;-53
2023/10/28 03:38:46;;;;;;;0.00;0.00;;;21.30;42.40;;;;;;5052462;28;20649;-54
2023/10/28 03:41:16;;;;;;;0.10;0.10;;;21.40;42.50;;;;;;5050754;28;20200;-51
2023/10/28 03:43:47;;;;;;;0.08;0.08;;;21.40;42.40;;;;;;5040240;28;20243;-56
2023/10/28 03:46:20;;;;;;;0.10;0.10;;;21.40;42.30;;;;;;5046434;28;20204;-51
2023/10/28 03:48:51;;;;;;;0.10;0.10;;;21.50;42.30;;;;;;5053463;28;20220;-54
2023/10/28 03:51:22;;;;;;;0.00;0.00;;;21.50;42.10;;;;;;5053545;28;20223;-54
2023/10/28 03:53:54;;;;;;;0.10;0.10;;;21.50;41.90;;;;;;5053734;28;20674;-52
2023/10/28 03:56:25;;;;;;;0.00;0.00;;;21.50;41.70;;;;;;5053259;28;20192;-49
2023/10/28 03:58:55;;;;;;;0.10;0.10;;;21.50;41.70;;;;;;5053762;28;20212;-53
2023/10/28 04:01:26;;;;;;;0.10;0.10;;;21.60;41.80;;;;;;5054914;28;20191;-54
2023/10/28 04:03:57;;;;;;;0.05;0.05;;;21.60;41.80;;;;;;5073526;28;20202;-49
2023/10/28 04:06:27;;;;;;;0.00;0.00;;;21.60;41.70;;;;;;5064787;28;20188;-47
2023/10/28 04:09:00;;;;;;;0.00;0.00;;;21.60;41.70;;;;;;5053525;28;20223;-47
2023/10/28 04:11:30;;;;;;;0.10;0.10;;;21.60;41.50;;;;;;5052914;28;20222;-54
2023/10/28 04:14:02;;;;;;;0.10;0.10;;;21.70;42.20;;;;;;5051700;28;20195;-52
2023/10/28 04:16:33;;;;;;;0.00;0.00;;;21.70;41.60;;;;;;5056179;23;20849;-49
2023/10/28 04:19:04;;;;;;;0.10;0.10;;;21.70;42.10;;;;;;5031427;28;20216;-51
2023/10/28 04:21:35;;;;;;;0.10;0.10;;;21.80;41.50;;;;;;5028361;28;20197;-49
2023/10/28 04:24:09;;;;;;;0.00;0.00;;;21.80;41.50;;;;;;5013123;28;20751;-50
2023/10/28 04:26:40;;;;;;;0.08;0.08;;;21.80;41.30;;;;;;5021793;28;20246;-49
2023/10/28 04:29:11;;;;;;;0.10;0.10;;;21.90;41.30;;;;;;5035415;28;20220;-51
2023/10/28 04:31:41;;;;;;;0.00;0.00;;;21.90;41.30;;;;;;5032173;28;20235;-50
2023/10/28 04:34:12;;;;;;;0.10;0.10;;;21.90;41.20;;;;;;5035832;28;20249;-50
2023/10/28 04:36:43;;;;;;;0.00;0.00;;;21.90;41.10;;;;;;5045069;28;20204;-48
2023/10/28 04:39:16;;;;;;;0.10;0.10;;;22.00;40.90;;;;;;5027250;28;20593;-48
2023/10/28 04:41:46;;;;;;;0.10;0.10;;;22.00;40.70;;;;;;5034766;28;20188;-50
2023/10/28 04:44:17;;;;;;;0.08;0.08;;;22.00;40.70;;;;;;5032760;28;20335;-50
2023/10/28 04:46:48;;;;;;;0.10;0.10;;;22.00;40.70;;;;;;5033179;28;20196;-49
2023/10/28 04:49:18;;;;;;;0.10;0.10;;;22.00;40.70;;;;;;5032766;28;20201;-50
2023/10/28 04:51:49;;;;;;;0.10;0.10;;;22.00;40.70;;;;;;5032664;28;20228;-47
2023/10/28 04:54:21;;;;;;;0.10;0.10;;;22.10;40.80;;;;;;5032890;28;20714;-50
2023/10/28 04:56:52;;;;;;;0.10;0.10;;;22.10;40.70;;;;;;5032971;28;20203;-49
2023/10/28 04:59:23;;;;;;;0.10;0.10;;;22.10;40.70;;;;;;5030765;28;20212;-44
2023/10/28 05:01:53;;;;;;;0.10;0.10;;;22.10;41.30;;;;;;5032195;28;20199;-50
2023/10/28 05:04:24;;;;;;;0.10;0.10;;;22.10;40.60;;;;;;5032764;28;20209;-50
2023/10/28 05:06:55;;;;;;;0.10;0.10;;;22.10;40.60;;;;;;5032883;28;20224;-50
2023/10/28 05:09:28;;;;;;;0.10;0.10;;;22.10;40.60;;;;;;5032710;28;20235;-51
2023/10/28 05:12:00;;;;;;;0.10;0.10;;;22.20;40.60;;;;;;5032674;28;20220;-49
2023/10/28 05:14:30;;;;;;;0.00;0.00;;;22.20;40.60;;;;;;5032623;28;20561;-47
2023/10/28 05:17:01;;;;;;;0.00;0.00;;;22.20;40.60;;;;;;5032891;28;20204;-50
2023/10/28 05:19:32;;;;;;;0.00;0.00;;;22.20;40.60;;;;;;5032422;28;20203;-53
2023/10/28 05:22:03;;;;;;;0.10;0.10;;;22.20;40.70;;;;;;5032361;28;20211;-52
2023/10/28 05:24:36;;;;;;;0.10;0.10;;;22.20;40.80;;;;;;5031623;28;20593;-51
2023/10/28 05:27:07;;;;;;;0.10;0.10;;;22.30;40.90;;;;;;5032416;28;20198;-52
2023/10/28 05:29:40;;;;;;;0.10;0.10;;;22.30;40.90;;;;;;5032597;28;20247;-47
2023/10/28 05:32:10;;;;;;;0.10;0.10;;;22.30;40.80;;;;;;5032367;28;20247;-49
2023/10/28 05:34:41;;;;;;;0.10;0.10;;;22.30;40.80;;;;;;5032455;28;20196;-50
2023/10/28 05:37:12;;;;;;;0.00;0.00;;;22.30;40.80;;;;;;5032214;28;20220;-50
2023/10/28 05:39:44;;;;;;;0.00;0.00;;;22.30;40.80;;;;;;5032128;28;20200;-50
2023/10/28 05:42:15;;;;;;;0.00;0.00;;;22.30;40.80;;;;;;5032356;28;20204;-51
2023/10/28 05:44:46;;;;;;;0.00;0.00;;;22.30;40.70;;;;;;5032083;28;20231;-50
2023/10/28 05:47:16;;;;;;;0.10;0.10;;;22.30;40.70;;;;;;5032017;28;20221;-50
2023/10/28 05:49:47;;;;;;;0.00;0.00;;;22.30;40.80;;;;;;5032127;28;20200;-50
2023/10/28 05:52:20;;;;;;;0.10;0.10;;;22.30;40.80;;;;;;5031854;28;20228;-49
2023/10/28 05:54:52;;;;;;;0.00;0.00;;;22.30;40.70;;;;;;5031879;28;20219;-49
2023/10/28 05:57:23;;;;;;;0.10;0.10;;;22.30;40.70;;;;;;5031423;28;20580;-53
2023/10/28 05:59:53;;;;;;;0.10;0.10;;;22.30;40.70;;;;;;5031614;28;20226;-48
2023/10/28 06:02:25;;;;;;;0.08;0.08;;;22.30;40.70;;;;;;5031830;28;20196;-48
2023/10/28 06:04:55;;;;;;;0.00;0.00;;;22.30;40.60;;;;;;5031997;28;20571;-49
2023/10/28 06:07:27;;;;;;;0.03;0.03;;;22.30;40.50;;;;;;5031541;28;20568;-49
2023/10/28 06:09:59;;;;;;;0.00;0.00;;;22.30;40.40;;;;;;5031501;28;20208;-50
2023/10/28 06:12:30;;;;;;;0.00;0.00;;;22.30;40.20;;;;;;5031726;28;20219;-48
2023/10/28 06:15:01;;;;;;;0.10;0.10;;;22.30;40.10;;;;;;5031791;28;20199;-48
2023/10/28 06:17:31;;;;;;;0.10;0.10;;;22.30;40.00;;;;;;5060473;23;20230;-52
2023/10/28 06:20:05;;;;;;;0.10;0.10;;;22.20;39.70;;;;;;5051378;28;20199;-51
2023/10/28 06:22:36;;;;;;;0.10;0.10;;;22.30;39.70;;;;;;5051547;28;20200;-51
2023/10/28 06:25:09;;;;;;;0.10;0.10;;;22.20;39.60;;;;;;5054197;28;20218;-51
2023/10/28 06:27:39;;;;;;;0.08;0.08;;;22.20;39.60;;;;;;5050574;28;20212;-54
2023/10/28 06:30:11;;;;;;;0.05;0.05;;;22.20;39.50;;;;;;5050918;28;20617;-57
2023/10/28 06:32:42;;;;;;;0.00;0.00;;;22.20;39.50;;;;;;5053344;28;20214;-51
2023/10/28 06:35:13;;;;;;;0.00;0.00;;;22.20;39.50;;;;;;5051361;28;20629;-52
2023/10/28 06:37:44;;;;;;;0.00;0.00;;;22.20;39.40;;;;;;5072345;28;20246;-54
2023/10/28 06:40:16;;;;;;;0.10;0.10;;;22.20;39.60;;;;;;5060667;28;20210;-56
2023/10/28 06:42:47;;;;;;;0.10;0.10;;;22.20;39.60;;;;;;5055171;28;20199;-49
2023/10/28 06:45:18;;;;;;;0.00;0.00;;;22.20;39.70;;;;;;5055328;28;20199;-51
2023/10/28 06:47:48;;;;;;;0.10;0.10;;;22.20;39.70;;;;;;5055606;28;20215;-52
2023/10/28 06:50:21;;;;;;;0.00;0.00;;;22.10;39.70;;;;;;5055502;28;20236;-52
2023/10/28 06:52:52;;;;;;;0.08;0.08;;;22.10;39.70;;;;;;5055511;28;20587;-51
2023/10/28 06:55:26;;;;;;;0.00;0.00;;;22.10;39.80;;;;;;5054682;28;20191;-51
2023/10/28 06:58:00;;;;;;;0.00;0.00;;;22.10;39.80;;;;;;5055414;28;20306;-55
2023/10/28 07:00:31;;;;;;;0.00;0.00;;;22.10;39.80;;;;;;5055235;28;20217;-54
2023/10/28 07:03:02;;;;;;;0.10;0.10;;;22.10;39.90;;;;;;5055371;28;20270;-52
2023/10/28 07:05:34;;;;;;;0.10;0.10;;;22.10;39.90;;;;;;5055275;28;20679;-55
2023/10/28 07:08:05;;;;;;;0.10;0.10;;;22.00;39.90;;;;;;5055057;28;20219;-51
2023/10/28 07:10:39;;;;;;;0.10;0.10;;;22.00;39.90;;;;;;5055058;28;20678;-50
2023/10/28 07:13:09;;;;;;;0.10;0.10;;;22.00;40.00;;;;;;5055075;28;20259;-55
2023/10/28 07:15:44;;;;;;;0.00;0.00;;;22.00;40.10;;;;;;5055193;28;20560;-58
2023/10/28 07:18:15;;;;;;;0.00;0.00;;;22.00;40.10;;;;;;5054795;28;20967;-57
2023/10/28 07:20:45;;;;;;;0.00;0.00;;;21.90;40.10;;;;;;5054703;28;20211;-53
2023/10/28 07:23:16;;;;;;;0.00;0.00;;;21.90;40.10;;;;;;5054434;28;20199;-52
2023/10/28 07:25:49;;;;;;;0.10;0.10;;;21.90;40.20;;;;;;5054519;28;20196;-48
2023/10/28 07:28:20;;;;;;;0.10;0.10;;;21.90;40.20;;;;;;5054379;28;20211;-51
2023/10/28 07:30:51;;;;;;;0.10;0.10;;;21.90;40.20;;;;;;5054581;28;20670;-53
2023/10/28 07:33:23;;;;;;;0.00;0.00;;;21.80;40.20;;;;;;5054535;28;20285;-51
2023/10/28 07:35:53;;;;;;;0.00;0.00;;;21.80;40.20;;;;;;5054471;28;20648;-55
2023/10/28 07:38:24;;;;;;;0.10;0.10;;;21.80;40.20;;;;;;5054227;28;20224;-52
2023/10/28 07:40:58;;;;;;;0.00;0.00;;;21.80;40.20;;;;;;5034501;28;20648;-54
2023/10/28 07:43:29;;;;;;;0.00;0.00;;;21.70;40.20;;;;;;5033759;28;20200;-49
2023/10/28 07:46:00;;;;;;;0.00;0.00;;;21.70;40.20;;;;;;5033848;28;20614;-49
2023/10/28 07:48:30;;;;;;;0.10;0.10;;;21.70;40.20;;;;;;5032801;28;20274;-53
2023/10/28 07:51:01;;;;;;;0.00;0.00;;;21.70;40.20;;;;;;5033785;28;20197;-51
2023/10/28 07:53:32;;;;;;;0.10;0.10;;;21.60;40.20;;;;;;5033900;28;20219;-54
2023/10/28 07:56:04;;;;;;;0.10;0.10;;;21.60;40.20;;;;;;5033638;28;20196;-54
2023/10/28 07:58:35;;;;;;;0.00;0.00;;;21.60;40.30;;;;;;5033609;28;20227;-53
2023/10/28 08:01:15;;;;;;;0.10;0.10;;;21.60;40.20;;;;;;5034138;28;20192;-57
2023/10/28 08:03:46;;;;;;;0.00;0.00;;;21.50;40.30;;;;;;5034241;28;20195;-50
2023/10/28 08:06:17;;;;;;;0.10;0.10;;;21.50;40.30;;;;;;5034212;28;20242;-50
2023/10/28 08:08:48;;;;;;;0.10;0.10;;;21.50;40.30;;;;;;5036285;28;20270;-49
2023/10/28 08:11:24;;;;;;;0.10;0.10;;;21.50;40.30;;;;;;5053680;28;20203;-54
2023/10/28 08:13:55;;;;;;;0.03;0.03;;;21.50;40.30;;;;;;5053520;28;20219;-55
2023/10/28 08:16:25;;;;;;;0.00;0.00;;;21.50;40.30;;;;;;5053907;28;20243;-51
2023/10/28 08:18:58;;;;;;;0.00;0.00;;;21.40;40.30;;;;;;5053199;28;20219;-52
2023/10/28 08:21:29;;;;;;;0.00;0.00;;;21.40;40.30;;;;;;5056050;28;20566;-58
2023/10/28 08:24:00;;;;;;;0.00;0.00;;;21.40;40.90;;;;;;5053510;28;20219;-49
2023/10/28 08:26:32;;;;;;;0.10;0.10;;;21.30;40.30;;;;;;5053513;28;20226;-51
2023/10/28 08:29:03;;;;;;;0.00;0.00;;;21.30;40.30;;;;;;5053732;28;20223;-54
2023/10/28 08:31:33;;;;;;;0.00;0.00;;;21.30;40.30;;;;;;5053422;28;20273;-54
2023/10/28 08:34:04;;;;;;;0.00;0.00;;;21.20;40.20;;;;;;5053281;28;20227;-55
2023/10/28 08:36:38;;;;;;;0.10;0.10;;;21.20;40.30;;;;;;5053129;28;20238;-53
2023/10/28 08:39:09;;;;;;;0.10;0.10;;;21.20;40.30;;;;;;5052714;28;20234;-53
2023/10/28 08:41:42;;;;;;;0.00;0.00;;;21.20;40.40;;;;;;5055396;28;20200;-58
2023/10/28 08:44:14;;;;;;;0.10;0.10;;;21.10;40.30;;;;;;5052928;28;20199;-50
2023/10/28 08:46:46;;;;;;;0.10;0.10;;;21.10;40.30;;;;;;5053457;28;20283;-56
2023/10/28 08:49:18;;;;;;;0.00;0.00;;;21.10;40.40;;;;;;5053102;28;20652;-57
2023/10/28 08:51:52;;;;;;;0.10;0.10;;;21.10;40.40;;;;;;5053107;28;20192;-52
2023/10/28 08:54:23;;;;;;;0.10;0.10;;;21.00;40.40;;;;;;5052983;28;20281;-57
2023/10/28 08:56:58;;;;;;;0.10;0.10;;;21.00;40.40;;;;;;5052795;28;20559;-54
2023/10/28 08:59:29;;;;;;;0.03;0.03;;;21.00;40.40;;;;;;5052664;28;20256;-53
2023/10/28 09:02:01;;;;;;;0.10;0.10;;;20.90;40.40;;;;;;5052530;28;20249;-53
2023/10/28 09:04:31;;;;;;;0.00;0.00;;;20.90;40.40;;;;;;5052759;28;20214;-52
2023/10/28 09:07:04;;;;;;;0.10;0.10;;;20.90;40.40;;;;;;5052535;28;20200;-54
2023/10/28 09:09:37;;;;;;;0.00;0.00;;;20.80;40.40;;;;;;5052895;28;20195;-50
2023/10/28 09:12:12;;;;;;;0.00;0.00;;;20.80;40.40;;;;;;5052492;28;20202;-51
2023/10/28 09:14:43;;;;;;;0.10;0.10;;;20.80;40.40;;;;;;5052244;28;20222;-52
2023/10/28 09:17:18;;;;;;;0.10;0.10;;;20.80;40.50;;;;;;5067605;23;20631;-52
2023/10/28 09:19:49;;;;;;;0.10;0.10;;;20.70;40.50;;;;;;5051890;28;20290;-47
2023/10/28 09:22:20;;;;;;;0.10;0.10;;;20.70;40.50;;;;;;5051941;28;20195;-46
2023/10/28 09:24:52;;;;;;;0.08;0.08;;;20.70;40.50;;;;;;5052125;28;20670;-51
2023/10/28 09:27:24;;;;;;;0.00;0.00;;;20.70;40.50;;;;;;5052408;28;20306;-52
2023/10/28 09:30:04;;;;;;;0.08;0.08;;;20.70;40.60;;;;;;5052389;28;20207;-48
2023/10/28 09:32:37;;;;;;;0.00;0.00;;;20.60;40.50;;;;;;5051943;28;20203;-48
2023/10/28 09:35:09;;;;;;;0.00;0.00;;;20.60;40.50;;;;;;5052049;28;20231;-52
2023/10/28 09:37:41;;;;;;;0.00;0.00;;;20.60;40.50;;;;;;5051970;28;20220;-43
2023/10/28 09:40:12;;;;;;;0.10;0.10;;;20.50;40.50;;;;;;5051966;28;20214;-43
2023/10/28 09:42:45;;;;;;;0.10;0.10;;;20.50;40.50;;;;;;5052112;28;20195;-46
2023/10/28 09:45:16;;;;;;;0.10;0.10;;;20.50;40.50;;;;;;5052100;28;20282;-43
2023/10/28 09:47:56;;;;;;;0.10;0.10;;;20.40;40.50;;;;;;5051980;28;20306;-43
2023/10/28 09:50:28;;;;;;;0.05;0.05;;;20.40;40.60;;;;;;5051880;28;20195;-43
2023/10/28 09:53:00;;;;;;;0.00;0.00;;;20.40;40.60;;;;;;5051770;28;20203;-47
2023/10/28 09:55:35;;;;;;;0.08;0.08;;;20.40;40.60;;;;;;5051894;28;20196;-43
2023/10/28 09:58:13;;;;;;;0.00;0.00;;;20.40;40.60;;;;;;5051214;28;20750;-44
2023/10/28 10:00:46;;;;;;;0.10;0.10;;;20.30;40.60;;;;;;5052102;28;20199;-46
2023/10/28 10:03:32;;;;;;;0.03;0.03;;;20.30;40.70;;;;;;5051777;28;20235;-44
2023/10/28 10:06:03;;;;;;;0.10;0.10;;;20.20;40.70;;;;;;5051978;28;20710;-43
2023/10/28 10:08:35;;;;;;;0.10;0.10;;;20.20;40.70;;;;;;5051419;28;20686;-43
2023/10/28 10:11:10;;;;;;;0.10;0.10;;;20.20;40.70;;;;;;5050768;28;20199;-44
2023/10/28 10:13:48;;;;;;;0.00;0.00;;;20.20;40.70;;;;;;5051346;28;20222;-42
2023/10/28 10:16:30;;;;;;;0.10;0.10;;;20.10;40.70;;;;;;5067120;23;20195;-49
2023/10/28 10:19:07;;;;;;;0.03;0.03;;;20.10;40.70;;;;;;5031395;28;20223;-45
2023/10/28 10:21:38;;;;;;;0.17;0.17;;;20.10;40.80;;;;;;5031652;28;20196;-51
2023/10/28 10:24:09;;;;;;;0.00;0.00;;;20.10;40.80;;;;;;5031748;28;20719;-50
2023/10/28 10:26:40;;;;;;;0.10;0.10;;;20.00;40.80;;;;;;5018581;28;20661;-51
2023/10/28 10:29:12;;;;;;;0.10;0.10;;;20.00;40.80;;;;;;5023578;28;20223;-53
2023/10/28 10:31:43;;;;;;;0.10;0.10;;;20.00;40.90;;;;;;5030720;28;20195;-48
2023/10/28 10:34:13;;;;;;;0.10;0.10;;;20.00;40.90;;;;;;5029581;28;20231;-52
2023/10/28 10:36:47;;;;;;;0.10;0.10;;;19.90;40.80;;;;;;5030842;28;20200;-50
2023/10/28 10:39:18;;;;;;;0.10;0.10;;;19.90;40.90;;;;;;5024606;28;20205;-50
2023/10/28 10:41:52;;;;;;;0.10;0.10;;;19.90;40.90;;;;;;5011824;28;20420;-50
2023/10/28 10:44:36;;;;;;;0.10;0.10;;;19.80;40.90;;;;;;5011862;28;20603;-49
2023/10/28 10:47:08;;;;;;;0.10;0.10;;;19.80;40.90;;;;;;5011552;28;20649;-54
2023/10/28 10:49:40;;;;;;;0.10;0.10;;;19.80;40.90;;;;;;5011658;28;20300;-52
2023/10/28 10:52:11;;;;;;;0.10;0.10;;;19.80;40.90;;;;;;5011804;28;20229;-47
2023/10/28 10:54:42;;;;;;;0.05;0.05;;;19.70;40.90;;;;;;5013448;28;20723;-51
2023/10/28 10:57:13;;;;;;;0.10;0.10;;;19.70;40.90;;;;;;5026799;28;20219;-53
2023/10/28 10:59:46;;;;;;;0.10;0.10;;;19.70;41.00;;;;;;5031020;28;20196;-51
2023/10/28 11:02:17;;;;;;;0.10;0.10;;;19.70;41.60;;;;;;5015101;28;20502;-47
2023/10/28 11:04:48;;;;;;;0.10;0.10;;;19.70;41.60;;;;;;5011759;28;20189;-50
2023/10/28 11:07:19;;;;;;;0.08;0.08;;;19.60;41.50;;;;;;5010371;28;20217;-46
2023/10/28 11:09:50;;;;;;;0.00;0.00;;;19.60;41.50;;;;;;5011903;28;20657;-51
2023/10/28 11:12:26;;;;;;;0.00;0.00;;;19.60;41.60;;;;;;5028214;28;20639;-50
2023/10/28 11:14:59;;;;;;;0.08;0.08;;;19.60;41.60;;;;;;5010704;28;20271;-49
2023/10/28 11:17:29;;;;;;;0.10;0.10;;;19.60;41.60;;;;;;5048067;22;20527;-46
2023/10/28 11:20:03;;;;;;;0.10;0.10;;;19.50;41.60;;;;;;5044297;28;20235;-42
2023/10/28 11:22:34;;;;;;;0.08;0.08;;;19.50;41.70;;;;;;5035312;28;20196;-43
2023/10/28 11:25:05;;;;;;;0.10;0.10;;;19.50;41.70;;;;;;5047053;28;20661;-50
2023/10/28 11:27:37;;;;;;;0.10;0.10;;;19.50;41.70;;;;;;5034492;28;20266;-50
2023/10/28 11:30:10;;;;;;;0.08;0.08;;;19.50;41.80;;;;;;5034247;28;20279;-50
2023/10/28 11:32:42;;;;;;;0.10;0.10;;;19.50;41.80;;;;;;5034215;28;20196;-50
2023/10/28 11:35:14;;;;;;;0.10;0.10;;;19.40;41.90;;;;;;5040280;28;20219;-48
2023/10/28 11:37:44;;;;;;;0.00;0.00;;;19.40;41.90;;;;;;5053511;28;20219;-46
2023/10/28 11:40:18;;;;;;;0.10;0.10;;;19.40;41.90;;;;;;5053584;28;20195;-45
2023/10/28 11:42:49;;;;;;;0.10;0.10;;;19.40;42.00;;;;;;5053701;28;20254;-44
2023/10/28 11:45:22;;;;;;;0.08;0.08;;;19.40;42.00;;;;;;5053614;28;20207;-48
2023/10/28 11:47:53;;;;;;;0.00;0.00;;;19.30;42.00;;;;;;5053250;28;20243;-46
2023/10/28 11:50:24;;;;;;;0.08;0.08;;;19.30;42.10;;;;;;5054041;28;20196;-48
2023/10/28 11:52:54;;;;;;;0.10;0.10;;;19.30;42.10;;;;;;5054383;28;20198;-46
2023/10/28 11:55:25;;;;;;;0.00;0.00;;;19.30;42.20;;;;;;5054152;28;20219;-46
2023/10/28 11:57:56;;;;;;;0.08;0.08;;;19.20;42.30;;;;;;5054055;28;20223;-47
2023/10/28 12:00:29;;;;;;;0.00;0.00;;;19.20;42.40;;;;;;5054103;28;20604;-46
2023/10/28 12:03:00;;;;;;;0.10;0.10;;;19.20;42.40;;;;;;5054095;28;20203;-50
2023/10/28 12:05:31;;;;;;;0.10;0.10;;;19.20;42.50;;;;;;5054260;28;20655;-48
2023/10/28 12:08:02;;;;;;;0.03;0.03;;;19.10;42.50;;;;;;5053840;28;20219;-50
2023/10/28 12:10:32;;;;;;;0.05;0.05;;;19.10;42.50;;;;;;5053853;28;20226;-49
2023/10/28 12:13:03;;;;;;;0.08;0.08;;;19.10;42.50;;;;;;5053688;28;20221;-47
2023/10/28 12:15:36;;;;;;;0.10;0.10;;;19.10;42.50;;;;;;5053755;28;20231;-48
2023/10/28 12:18:07;;;;;;;0.10;0.10;;;19.10;42.50;;;;;;5069287;23;20231;-53
2023/10/28 12:20:38;;;;;;;0.10;0.10;;;19.00;42.50;;;;;;5053785;28;20242;-50
2023/10/28 12:23:09;;;;;;;0.20;0.20;;;19.00;43.10;;;;;;5053470;28;20199;-47
2023/10/28 12:25:40;;;;;;;0.00;0.00;;;19.00;42.50;;;;;;5053402;28;20199;-45
2023/10/28 12:28:10;;;;;;;0.00;0.00;;;19.00;42.50;;;;;;5055917;28;20208;-51
2023/10/28 12:30:43;;;;;;;0.10;0.10;;;18.90;42.40;;;;;;5053595;28;20200;-52
2023/10/28 12:33:13;;;;;;;0.10;0.10;;;18.90;42.40;;;;;;5061760;28;20747;-49
2023/10/28 12:35:44;;;;;;;0.10;0.10;;;18.90;42.40;;;;;;5067976;28;20231;-56
2023/10/28 12:38:15;;;;;;;0.10;0.10;;;18.80;42.40;;;;;;5053462;28;20258;-53
2023/10/28 12:40:46;;;;;;;0.10;0.10;;;18.80;42.40;;;;;;5052960;28;20203;-51
2023/10/28 12:43:17;;;;;;;0.03;0.03;;;18.80;42.40;;;;;;5055552;28;20203;-47
2023/10/28 12:45:49;;;;;;;0.10;0.10;;;18.80;42.40;;;;;;5052856;28;20202;-48
2023/10/28 12:48:20;;;;;;;0.05;0.05;;;18.80;42.40;;;;;;5052765;28;20250;-48
2023/10/28 12:50:51;;;;;;;0.10;0.10;;;18.70;42.40;;;;;;5052830;28;20286;-46
2023/10/28 12:53:21;;;;;;;0.10;0.10;;;18.70;42.40;;;;;;5052933;28;20235;-54
2023/10/28 12:55:52;;;;;;;0.10;0.10;;;18.70;42.40;;;;;;5052703;28;20304;-45
2023/10/28 12:58:22;;;;;;;0.10;0.10;;;18.70;42.50;;;;;;5052564;28;20219;-45
2023/10/28 13:00:56;;;;;;;0.10;0.10;;;18.60;42.40;;;;;;5052916;28;20200;-50
2023/10/28 13:03:26;;;;;;;0.00;0.00;;;18.60;42.50;;;;;;5052902;28;20196;-47
2023/10/28 13:05:57;;;;;;;0.10;0.10;;;18.60;42.40;;;;;;5052732;28;20226;-47
2023/10/28 13:08:28;;;;;;;0.10;0.10;;;18.60;42.50;;;;;;5052746;28;20251;-46
2023/10/28 13:10:59;;;;;;;0.10;0.10;;;18.60;42.40;;;;;;5032865;28;20203;-50
2023/10/28 13:13:29;;;;;;;0.00;0.00;;;18.50;42.40;;;;;;5032447;28;20200;-48